Amis Wisdom II — 3FGI2 — position and weather

sailwx.info

Track history (hours):
 
Tides and Currents Weather Stations Pressure Air Temp Water Temp Dewpoint Dewpoint Depression Visibility Wind Speed Wind Dir Waves Ship Positions

Amis Wisdom II

Last reported at 2016-May-26 22:13 UTC. Time now 2016-May-30 20:25 UTC.
Position N 37°12' W 006°56'.

Length 200 m; draft 10.4 m.

Type: Cargo ship. MMSI: 357086000.

Date/timePositionNaut miles runAvg speedWind from/ knotsBaromVisibWave heightAir tempDewpointWater temp
2016-May-26 22:13N 37°12' W 006°56'0 0.0
2016-May-26 21:25N 37°12' W 006°56'  
2016-May-24 12:12N 29°44' W 013°42'3613.0
2016-May-24 09:26N 29°15' W 014°06'2412.8
2016-May-24 07:33N 28°55' W 014°21'1312.7
2016-May-24 06:31N 28°44' W 014°30'1212.5
2016-May-24 05:33N 28°34' W 014°38'1312.6
2016-May-24 04:33N 28°24' W 014°45'1312.6
2016-May-24 03:33N 28°13' W 014°52'1212.5
2016-May-24 02:33N 28°01' W 014°57'1212.1
2016-May-24 01:33N 27°50' W 015°03'1211.8
2016-May-24 00:33N 27°39' W 015°08'  
Track history (hours):
 
Tides and Currents Weather Stations Pressure Air Temp Water Temp Dewpoint Dewpoint Depression Visibility Wind Speed Wind Dir Waves Ship Positions

Amis Wisdom II

Last reported at 2016-May-26 22:13 UTC. Time now 2016-May-30 20:25 UTC.
Position N 37°12' W 006°56'.

Length 200 m; draft 10.4 m.

Type: Cargo ship. MMSI: 357086000.

Date/timePositionNaut miles runAvg speedWind from/ knotsBaromVisibWave heightAir tempDewpointWater temp
2016-May-26 22:13N 37°12' W 006°56'0 0.0
2016-May-26 21:25N 37°12' W 006°56'  
2016-May-24 12:12N 29°44' W 013°42'3613.0
2016-May-24 09:26N 29°15' W 014°06'2412.8
2016-May-24 07:33N 28°55' W 014°21'1312.7
2016-May-24 06:31N 28°44' W 014°30'1212.5
2016-May-24 05:33N 28°34' W 014°38'1312.6
2016-May-24 04:33N 28°24' W 014°45'1312.6
2016-May-24 03:33N 28°13' W 014°52'1212.5
2016-May-24 02:33N 28°01' W 014°57'1212.1
2016-May-24 01:33N 27°50' W 015°03'1211.8
2016-May-24 00:33N 27°39' W 015°08'  

Dump ship's entire track history